Time;durP1;ratioP1;P1;durP2;ratioP2;P2;SDS_P1;SDS_P2;PMS_P1;PMS_P2;Temp;Humidity;BMP_temperature;BMP_pressure;BME280_temperature;BME280_humidity;BME280_pressure;Samples;Min_cycle;Max_cycle;Signal;HPM_P1;HPM_P2
2022/01/27 00:02:23;;;;;;;60.43;19.60;;;;;;;-1.85;100.00;100112.38;5014307;28;20242;-62
2022/01/27 00:05:02;;;;;;;181.80;29.13;;;;;;;-1.88;100.00;100115.00;5012490;28;20458;-61
2022/01/27 00:07:31;;;;;;;69.17;21.63;;;;;;;-1.86;100.00;100114.09;5013823;28;20198;-61
2022/01/27 00:10:10;;;;;;;146.10;21.17;;;;;;;-1.92;100.00;100116.81;5013481;28;20660;-62
2022/01/27 00:12:38;;;;;;;62.70;19.40;;;;;;;-1.90;100.00;100115.06;5013675;28;20191;-61
2022/01/27 00:15:10;;;;;;;67.47;22.00;;;;;;;-1.85;100.00;100113.22;5012848;28;20200;-63
2022/01/27 00:17:41;;;;;;;71.57;22.63;;;;;;;-1.81;100.00;100116.53;4995991;28;20664;-62
2022/01/27 00:20:09;;;;;;;71.93;22.63;;;;;;;-1.82;100.00;100115.72;5013458;28;20231;-62
2022/01/27 00:22:38;;;;;;;65.67;21.67;;;;;;;-1.74;100.00;100119.81;5013522;28;20196;-61
2022/01/27 00:25:06;;;;;;;64.73;21.73;;;;;;;-1.77;100.00;100113.03;5012778;28;20181;-62
2022/01/27 00:27:33;;;;;;;59.93;21.90;;;;;;;-1.75;100.00;100113.03;5013201;28;20188;-65
2022/01/27 00:30:03;;;;;;;69.73;22.03;;;;;;;-1.65;100.00;100102.50;4995748;28;20255;-61
2022/01/27 00:32:31;;;;;;;63.63;22.30;;;;;;;-1.72;100.00;100098.41;5014045;28;20192;-64
2022/01/27 00:34:59;;;;;;;74.35;26.63;;;;;;;-1.67;100.00;100095.75;5030375;28;20429;-63
2022/01/27 00:37:26;;;;;;;53.87;20.97;;;;;;;-1.63;100.00;100087.13;5031964;28;20186;-62
2022/01/27 00:39:58;;;;;;;56.30;21.13;;;;;;;-1.60;100.00;100097.31;5032352;28;20197;-63
2022/01/27 00:42:26;;;;;;;63.73;22.50;;;;;;;-1.70;100.00;100088.97;5032053;28;20192;-62
2022/01/27 00:44:53;;;;;;;61.00;21.23;;;;;;;-1.69;100.00;100080.41;5030958;28;20206;-63
2022/01/27 00:47:20;;;;;;;58.77;20.13;;;;;;;-1.67;100.00;100076.09;5030758;28;20689;-63
2022/01/27 00:49:47;;;;;;;55.40;20.47;;;;;;;-1.68;100.00;100068.47;5030684;28;20292;-63
2022/01/27 00:52:22;;;;;;;54.73;20.43;;;;;;;-1.61;100.00;100064.03;5030711;28;20193;-63
2022/01/27 00:54:50;;;;;;;58.50;21.83;;;;;;;-1.57;100.00;100060.53;5030646;28;20221;-62
2022/01/27 00:57:33;;;;;;;52.73;18.53;;;;;;;-1.52;100.00;100063.81;5031663;28;20558;-62
2022/01/27 01:00:02;;;;;;;53.73;19.77;;;;;;;-1.52;100.00;100056.13;5029696;28;20281;-62
2022/01/27 01:02:39;;;;;;;62.07;21.50;;;;;;;-1.57;100.00;100058.78;5031606;28;20194;-63
2022/01/27 01:05:20;;;;;;;51.30;19.70;;;;;;;-1.56;100.00;100052.78;5031128;28;20195;-63
2022/01/27 01:07:51;;;;;;;50.57;18.67;;;;;;;-1.45;100.00;100055.09;5030364;28;20277;-63
2022/01/27 01:11:06;;;;;;;56.67;20.20;;;;;;;-1.55;100.00;100053.63;5029226;28;20188;-62
2022/01/27 01:16:13;;;;;;;64.43;22.13;;;;;;;-1.58;100.00;100076.75;5021267;28;20238;-63
2022/01/27 01:18:48;;;;;;;62.67;23.33;;;;;;;-1.63;100.00;100069.22;5013460;28;20238;-62
2022/01/27 01:21:42;;;;;;;64.33;23.13;;;;;;;-1.70;100.00;100076.19;5010996;28;20242;-62
2022/01/27 01:30:06;;;;;;;63.63;23.27;;;;;;;-1.79;100.00;100077.25;5025667;28;20258;-62
2022/01/27 01:32:42;;;;;;;72.83;24.90;;;;;;;-1.79;100.00;100079.81;5031504;28;20296;-62
2022/01/27 01:35:10;;;;;;;64.43;23.03;;;;;;;-1.76;100.00;100075.50;5030665;28;20244;-62
2022/01/27 01:37:40;;;;;;;74.57;24.30;;;;;;;-1.77;100.00;100076.38;5028811;28;20190;-62
2022/01/27 01:40:09;;;;;;;68.70;25.13;;;;;;;-1.76;100.00;100067.81;5031450;28;20258;-62
2022/01/27 01:42:36;;;;;;;71.57;25.47;;;;;;;-1.72;100.00;100064.31;5011033;28;20672;-62
2022/01/27 01:45:07;;;;;;;66.93;23.47;;;;;;;-1.71;100.00;100064.25;5012997;28;20199;-63
2022/01/27 01:47:34;;;;;;;71.00;25.27;;;;;;;-1.68;100.00;100058.22;5013259;28;20199;-62
2022/01/27 01:50:02;;;;;;;76.10;26.93;;;;;;;-1.60;100.00;100058.03;5029599;28;20202;-63
2022/01/27 01:52:30;;;;;;;81.73;25.70;;;;;;;-1.62;100.00;100063.22;5031048;28;20652;-62
2022/01/27 01:54:57;;;;;;;79.47;26.23;;;;;;;-1.67;100.00;100060.75;5012460;28;20195;-62
2022/01/27 01:57:24;;;;;;;76.57;25.27;;;;;;;-1.73;100.00;100060.06;5031003;28;20187;-62
2022/01/27 01:59:52;;;;;;;82.13;26.73;;;;;;;-1.71;100.00;100043.78;5013349;28;20308;-63
2022/01/27 02:02:20;;;;;;;78.30;27.17;;;;;;;-1.77;100.00;100054.16;5012984;28;20218;-62
2022/01/27 02:04:47;;;;;;;89.50;32.75;;;;;;;-1.71;100.00;100054.00;5012128;28;20441;-63
2022/01/27 02:07:34;;;;;;;89.30;30.10;;;;;;;-1.75;100.00;100042.16;5030883;28;20193;-63
2022/01/27 02:10:12;;;;;;;72.67;26.37;;;;;;;-1.67;100.00;100045.38;5009934;28;20195;-62
2022/01/27 02:18:10;;;;;;;80.60;26.90;;;;;;;-1.77;100.00;100040.53;5029071;28;20253;-63
2022/01/27 02:20:41;;;;;;;80.17;25.47;;;;;;;-1.83;100.00;100039.81;5029748;28;20524;-63
2022/01/27 02:23:11;;;;;;;81.07;26.83;;;;;;;-1.81;100.00;100039.75;5029692;28;20280;-63
2022/01/27 02:25:38;;;;;;;83.37;26.10;;;;;;;-1.83;100.00;100042.38;5026960;28;20219;-63
2022/01/27 02:28:06;;;;;;;85.53;26.67;;;;;;;-1.78;100.00;100042.25;5029721;28;20214;-62
2022/01/27 02:30:33;;;;;;;78.33;26.30;;;;;;;-1.84;100.00;100039.81;5029715;28;20193;-62
2022/01/27 02:33:00;;;;;;;74.43;25.63;;;;;;;-1.98;100.00;100041.00;5029739;28;20713;-62
2022/01/27 02:35:29;;;;;;;79.07;27.73;;;;;;;-1.89;100.00;100046.78;5028973;28;20190;-62
2022/01/27 02:37:57;;;;;;;76.87;26.67;;;;;;;-1.92;100.00;100050.25;5026961;28;20342;-64
2022/01/27 02:40:34;;;;;;;72.67;25.73;;;;;;;-1.91;100.00;100051.09;5011853;28;20191;-62
2022/01/27 02:43:01;;;;;;;69.27;25.30;;;;;;;-1.98;100.00;100041.00;5010175;28;20196;-63
2022/01/27 02:45:36;;;;;;;80.73;26.93;;;;;;;-2.04;100.00;100050.53;5028829;28;20572;-62
2022/01/27 02:48:03;;;;;;;77.30;27.13;;;;;;;-1.99;100.00;100043.59;5029107;28;20304;-62
2022/01/27 02:50:30;;;;;;;75.93;25.33;;;;;;;-2.04;100.00;100040.31;5029364;28;20188;-62
2022/01/27 02:52:58;;;;;;;77.77;26.13;;;;;;;-2.10;100.00;100043.84;5029513;28;20195;-62
2022/01/27 02:55:25;;;;;;;73.00;25.73;;;;;;;-2.10;100.00;100051.50;5028664;28;20202;-63
2022/01/27 02:57:52;;;;;;;78.37;25.07;;;;;;;-2.14;100.00;100048.19;5029177;28;20208;-63
2022/01/27 03:00:19;;;;;;;69.80;24.67;;;;;;;-2.09;100.00;100038.69;5029957;28;20546;-63
2022/01/27 03:02:46;;;;;;;67.57;23.70;;;;;;;-2.12;100.00;100050.75;5012026;28;20637;-62
2022/01/27 03:05:13;;;;;;;71.70;24.63;;;;;;;-2.08;100.00;100048.06;5029568;28;20197;-62
2022/01/27 03:07:39;;;;;;;74.10;25.20;;;;;;;-2.11;99.54;100052.38;5029964;28;20553;-62
2022/01/27 03:10:08;;;;;;;71.57;23.77;;;;;;;-2.20;100.00;100060.31;5030033;28;20212;-62
2022/01/27 03:12:37;;;;;;;70.70;23.43;;;;;;;-2.23;100.00;100056.94;5030711;28;20193;-62
2022/01/27 03:15:05;;;;;;;78.33;24.30;;;;;;;-2.31;100.00;100056.25;5033291;28;20212;-62
2022/01/27 03:17:32;;;;;;;72.13;23.50;;;;;;;-2.30;100.00;100060.50;5033916;28;20190;-62
2022/01/27 03:19:59;;;;;;;70.23;23.60;;;;;;;-2.26;100.00;100068.94;5033296;28;20186;-63
2022/01/27 03:22:26;;;;;;;70.33;22.97;;;;;;;-2.26;100.00;100080.03;5028537;28;20221;-63
2022/01/27 03:24:52;;;;;;;69.00;22.43;;;;;;;-2.21;100.00;100079.91;5028050;28;20206;-63
2022/01/27 03:27:24;;;;;;;66.07;23.23;;;;;;;-2.18;100.00;100079.00;5033240;28;20194;-63
2022/01/27 03:29:51;;;;;;;71.20;23.03;;;;;;;-2.22;100.00;100078.22;5033411;28;20202;-63
2022/01/27 03:32:18;;;;;;;70.33;23.07;;;;;;;-2.17;100.00;100089.19;5016175;28;20195;-63
2022/01/27 03:34:46;;;;;;;75.57;28.73;;;;;;;-2.20;100.00;100083.31;5014246;28;20453;-62
2022/01/27 03:37:12;;;;;;;68.47;24.73;;;;;;;-2.18;100.00;100084.13;5033568;28;20192;-62
2022/01/27 03:39:41;;;;;;;69.70;22.93;;;;;;;-2.26;100.00;100077.47;5033620;28;20575;-62
2022/01/27 03:42:09;;;;;;;62.50;23.13;;;;;;;-2.17;99.97;100073.03;5033514;28;20241;-61
2022/01/27 03:44:37;;;;;;;64.43;21.33;;;;;;;-2.19;99.58;100056.88;5014643;28;20201;-61
2022/01/27 03:47:05;;;;;;;59.13;22.27;;;;;;;-2.23;99.80;100043.28;5033487;28;20190;-61
2022/01/27 03:49:32;;;;;;;60.53;22.03;;;;;;;-2.31;99.96;100040.91;5031228;28;20223;-61
2022/01/27 03:52:01;;;;;;;60.73;21.17;;;;;;;-2.29;100.00;100035.75;5027268;28;20209;-61
2022/01/27 03:54:30;;;;;;;65.60;21.60;;;;;;;-2.32;100.00;100031.56;5031136;28;20276;-61
2022/01/27 03:56:57;;;;;;;69.87;23.23;;;;;;;-2.23;100.00;100017.72;5032778;28;20194;-62
2022/01/27 03:59:24;;;;;;;67.13;23.83;;;;;;;-2.20;100.00;100004.03;5033603;28;20210;-62
2022/01/27 04:01:52;;;;;;;63.93;23.00;;;;;;;-2.19;100.00;100005.69;5033143;28;20219;-61
2022/01/27 04:04:19;;;;;;;64.73;23.47;;;;;;;-2.15;100.00;100004.75;5032617;28;20711;-62
2022/01/27 04:06:49;;;;;;;58.10;21.80;;;;;;;-2.12;100.00;100002.94;5032705;28;20669;-62
2022/01/27 04:09:16;;;;;;;69.17;23.87;;;;;;;-2.18;100.00;99990.31;5033011;28;20260;-62
2022/01/27 04:11:43;;;;;;;67.23;23.67;;;;;;;-2.12;100.00;99999.56;5033097;28;20249;-63
2022/01/27 04:14:11;;;;;;;57.90;21.77;;;;;;;-2.06;99.93;100004.50;5032488;28;20281;-62
2022/01/27 04:16:38;;;;;;;65.47;21.70;;;;;;;-2.15;99.64;100009.88;5033230;28;20617;-61
2022/01/27 04:19:06;;;;;;;67.03;23.47;;;;;;;-2.05;98.90;100018.97;5032743;28;20211;-62
2022/01/27 04:21:33;;;;;;;68.67;24.53;;;;;;;-2.27;99.40;100005.88;5032808;28;20209;-62
2022/01/27 04:24:00;;;;;;;69.43;23.90;;;;;;;-2.25;99.72;100014.34;5031483;28;20195;-62
2022/01/27 04:26:33;;;;;;;69.47;23.50;;;;;;;-2.27;99.67;100029.75;5033014;28;20186;-62
2022/01/27 04:29:01;;;;;;;69.20;22.63;;;;;;;-2.27;100.00;100013.53;5032397;28;20241;-62
2022/01/27 04:31:28;;;;;;;63.37;23.53;;;;;;;-2.30;100.00;100024.69;5032574;28;20189;-62
2022/01/27 04:33:55;;;;;;;69.70;23.47;;;;;;;-2.44;100.00;100024.16;5031888;28;20236;-61
2022/01/27 04:36:29;;;;;;;65.80;22.57;;;;;;;-2.41;100.00;100021.53;5032306;28;20190;-62
2022/01/27 04:39:05;;;;;;;71.00;25.17;;;;;;;-2.46;100.00;100019.06;5032564;28;20700;-62
2022/01/27 04:41:38;;;;;;;72.43;23.20;;;;;;;-2.42;100.00;100018.13;5032272;28;20288;-61
2022/01/27 04:44:13;;;;;;;70.30;23.93;;;;;;;-2.48;100.00;100019.97;5031236;28;20193;-61
2022/01/27 04:46:46;;;;;;;66.73;22.17;;;;;;;-2.48;100.00;100000.34;5032294;28;20192;-61
2022/01/27 04:49:13;;;;;;;66.03;23.63;;;;;;;-2.44;100.00;100001.13;5031788;28;20251;-62
2022/01/27 04:51:41;;;;;;;72.70;23.47;;;;;;;-2.47;100.00;99999.47;5031930;28;20182;-62
2022/01/27 04:54:13;;;;;;;72.47;25.20;;;;;;;-2.49;100.00;99993.56;5030741;28;20660;-62
2022/01/27 04:56:41;;;;;;;79.37;24.70;;;;;;;-2.43;100.00;99997.72;5031182;28;20201;-63
2022/01/27 04:59:14;;;;;;;76.03;24.83;;;;;;;-2.40;100.00;100007.88;5031601;28;20214;-63
2022/01/27 05:01:46;;;;;;;72.73;25.50;;;;;;;-2.46;100.00;100001.16;5031844;28;20219;-62
2022/01/27 05:04:15;;;;;;;77.80;24.57;;;;;;;-2.37;100.00;100008.63;5031532;28;20216;-62
2022/01/27 05:06:44;;;;;;;82.83;26.60;;;;;;;-2.42;100.00;100012.19;5032077;28;20248;-62
2022/01/27 05:09:11;;;;;;;82.17;27.17;;;;;;;-2.55;100.00;100004.78;5031705;28;20217;-62
2022/01/27 05:11:45;;;;;;;78.90;26.27;;;;;;;-2.52;100.00;100007.25;5031789;28;20182;-62
2022/01/27 05:14:16;;;;;;;73.30;25.33;;;;;;;-2.57;100.00;99996.28;5031221;28;20197;-62
2022/01/27 05:16:43;;;;;;;82.70;26.53;;;;;;;-2.42;100.00;100004.50;5031494;28;20244;-62
2022/01/27 05:19:10;;;;;;;79.50;26.20;;;;;;;-2.47;100.00;100002.03;5031406;28;20201;-62
2022/01/27 05:21:37;;;;;;;78.70;27.60;;;;;;;-2.48;100.00;100009.75;5031754;28;20217;-62
2022/01/27 05:24:06;;;;;;;75.67;25.70;;;;;;;-2.43;100.00;100000.25;5031220;28;20285;-63
2022/01/27 05:26:33;;;;;;;87.00;30.03;;;;;;;-2.46;100.00;99985.00;5031599;28;20186;-63
2022/01/27 05:29:00;;;;;;;81.57;27.33;;;;;;;-2.50;100.00;99991.03;5031524;28;20210;-63
2022/01/27 05:31:27;;;;;;;81.13;26.97;;;;;;;-2.49;100.00;99993.56;5031442;28;20186;-63
2022/01/27 05:33:54;;;;;;;83.00;27.58;;;;;;;-2.48;100.00;99985.00;5030839;28;20817;-63
2022/01/27 05:36:21;;;;;;;81.17;27.83;;;;;;;-2.43;100.00;99978.06;5030555;28;20187;-63
2022/01/27 05:38:48;;;;;;;82.33;27.40;;;;;;;-2.41;100.00;99981.44;5031462;28;20224;-63
2022/01/27 05:41:16;;;;;;;72.90;25.90;;;;;;;-2.38;100.00;99988.22;5031476;28;20473;-62
2022/01/27 05:43:44;;;;;;;79.27;27.67;;;;;;;-2.36;100.00;99989.03;5030790;28;20650;-62
2022/01/27 05:46:11;;;;;;;73.07;26.93;;;;;;;-2.29;100.00;99990.56;5030973;28;20182;-63
2022/01/27 05:48:38;;;;;;;73.40;25.97;;;;;;;-2.32;99.95;100005.97;5030389;28;20731;-61
2022/01/27 05:51:05;;;;;;;75.17;26.87;;;;;;;-2.37;99.71;100008.63;5028833;28;20720;-63
2022/01/27 05:53:32;;;;;;;76.97;27.43;;;;;;;-2.33;100.00;100011.97;5030001;28;20186;-62
2022/01/27 05:55:59;;;;;;;78.67;27.80;;;;;;;-2.40;100.00;100013.81;5030584;28;20276;-62
2022/01/27 05:58:27;;;;;;;85.50;30.43;;;;;;;-2.47;100.00;100016.56;5030947;28;20209;-62
2022/01/27 06:00:54;;;;;;;77.20;26.87;;;;;;;-2.41;100.00;100024.09;5030886;28;20650;-62
2022/01/27 06:03:21;;;;;;;89.43;29.67;;;;;;;-2.40;100.00;100038.56;5030932;28;20209;-62
2022/01/27 06:05:48;;;;;;;83.97;26.97;;;;;;;-2.40;100.00;100044.50;5030329;28;20813;-62
2022/01/27 06:08:15;;;;;;;85.70;27.67;;;;;;;-2.40;100.00;100046.22;5030501;28;20209;-62
2022/01/27 06:10:41;;;;;;;80.13;26.77;;;;;;;-2.37;100.00;100051.28;5030781;28;20654;-62
2022/01/27 06:13:09;;;;;;;81.67;26.37;;;;;;;-2.40;100.00;100061.56;5030819;28;20181;-62
2022/01/27 06:15:37;;;;;;;84.50;28.50;;;;;;;-2.43;100.00;100059.91;5029967;28;20183;-62
2022/01/27 06:18:04;;;;;;;84.40;27.90;;;;;;;-2.49;100.00;100057.47;5030734;28;20213;-63
2022/01/27 06:20:32;;;;;;;85.30;28.53;;;;;;;-2.47;100.00;100060.84;5030429;28;20185;-62
2022/01/27 06:22:59;;;;;;;88.40;28.23;;;;;;;-2.44;100.00;100058.22;5030391;28;20207;-63
2022/01/27 06:25:27;;;;;;;85.47;27.97;;;;;;;-2.47;100.00;100071.06;5028947;28;20196;-62
2022/01/27 06:27:55;;;;;;;79.13;27.33;;;;;;;-2.47;100.00;100067.69;5030507;28;20209;-62
2022/01/27 06:30:35;;;;;;;89.87;29.67;;;;;;;-2.50;100.00;100060.09;5030469;28;20193;-62
2022/01/27 06:33:03;;;;;;;79.47;26.90;;;;;;;-2.49;100.00;100075.38;5030488;28;20657;-62
2022/01/27 06:35:31;;;;;;;95.13;27.53;;;;;;;-2.45;100.00;100065.94;5029749;28;20239;-62
2022/01/27 06:37:58;;;;;;;77.17;26.10;;;;;;;-2.46;100.00;100066.81;5030358;28;20693;-62
2022/01/27 06:40:25;;;;;;;86.03;26.13;;;;;;;-2.47;100.00;100067.69;5030556;28;20294;-62
2022/01/27 06:42:51;;;;;;;69.70;25.30;;;;;;;-2.50;100.00;100070.31;5030196;28;20215;-62
2022/01/27 06:45:19;;;;;;;86.33;27.07;;;;;;;-2.55;100.00;100068.69;5029622;28;20657;-62
2022/01/27 06:47:46;;;;;;;81.53;25.83;;;;;;;-2.52;100.00;100073.75;5034481;28;20209;-62
2022/01/27 06:50:14;;;;;;;71.67;24.17;;;;;;;-2.55;100.00;100070.38;5036435;28;20645;-62
2022/01/27 06:52:42;;;;;;;72.83;24.83;;;;;;;-2.55;100.00;100068.69;5036363;28;20224;-62
2022/01/27 06:55:09;;;;;;;68.37;22.17;;;;;;;-2.47;100.00;100086.41;5035914;28;20193;-63
2022/01/27 06:57:36;;;;;;;64.60;22.10;;;;;;;-2.54;100.00;100082.31;5036682;28;20198;-62
2022/01/27 07:00:08;;;;;;;68.23;23.17;;;;;;;-2.57;100.00;100079.81;5036649;28;20548;-62
2022/01/27 07:02:35;;;;;;;68.67;22.53;;;;;;;-2.56;100.00;100073.81;5018917;28;20586;-62
2022/01/27 07:05:02;;;;;;;66.00;22.60;;;;;;;-2.60;100.00;100064.53;5018209;28;20300;-62
2022/01/27 07:07:30;;;;;;;74.23;25.93;;;;;;;-2.59;100.00;100066.22;5036655;28;20727;-62
2022/01/27 07:09:57;;;;;;;75.70;23.80;;;;;;;-2.57;100.00;100061.91;5018973;28;20612;-62
2022/01/27 07:12:24;;;;;;;77.17;23.87;;;;;;;-2.64;100.00;100058.66;5035756;28;20185;-61
2022/01/27 07:14:53;;;;;;;68.83;23.23;;;;;;;-2.59;100.00;100056.84;5036150;28;20197;-63
2022/01/27 07:17:21;;;;;;;85.37;24.30;;;;;;;-2.63;100.00;100055.22;5037024;28;20196;-62
2022/01/27 07:19:47;;;;;;;66.37;23.53;;;;;;;-2.58;100.00;100050.84;5036418;28;20240;-60
2022/01/27 07:22:14;;;;;;;77.17;23.40;;;;;;;-2.56;100.00;100046.56;5036536;28;20304;-62
2022/01/27 07:24:42;;;;;;;66.50;22.30;;;;;;;-2.62;100.00;100050.94;5035966;28;20660;-61
2022/01/27 07:27:09;;;;;;;75.80;24.33;;;;;;;-2.75;100.00;100050.34;5036496;28;20182;-60
2022/01/27 07:29:36;;;;;;;74.63;23.30;;;;;;;-2.73;100.00;100052.03;5036115;28;20208;-61
2022/01/27 07:32:03;;;;;;;89.45;31.35;;;;;;;-2.67;100.00;100058.72;5035869;28;20429;-62
2022/01/27 07:34:30;;;;;;;81.10;27.27;;;;;;;-2.63;100.00;100065.44;5035586;28;20187;-60
2022/01/27 07:37:00;;;;;;;88.30;26.37;;;;;;;-2.61;100.00;100067.97;5036278;28;20672;-60
2022/01/27 07:39:27;;;;;;;83.93;25.27;;;;;;;-2.56;100.00;100076.38;5036426;28;20292;-61
2022/01/27 07:41:57;;;;;;;84.47;24.40;;;;;;;-2.63;100.00;100087.59;5036464;28;20181;-60
2022/01/27 07:44:24;;;;;;;90.87;25.03;;;;;;;-2.61;100.00;100091.81;5017952;28;20274;-60
2022/01/27 07:46:51;;;;;;;85.27;26.13;;;;;;;-2.57;100.00;100105.38;5036302;28;20725;-60
2022/01/27 07:49:18;;;;;;;75.23;25.20;;;;;;;-2.57;100.00;100100.25;5034145;28;20324;-60
2022/01/27 07:51:45;;;;;;;78.70;26.40;;;;;;;-2.54;100.00;100101.06;5031687;28;20217;-60
2022/01/27 07:54:11;;;;;;;74.87;24.50;;;;;;;-2.49;100.00;100100.94;5034549;28;20186;-60
2022/01/27 07:56:38;;;;;;;79.60;24.20;;;;;;;-2.45;100.00;100094.91;5035460;28;20202;-61
2022/01/27 07:59:06;;;;;;;67.57;23.57;;;;;;;-2.43;100.00;100100.81;5033611;28;20209;-61
2022/01/27 08:01:33;;;;;;;75.97;25.30;;;;;;;-2.42;100.00;100089.72;5032768;28;20186;-61
2022/01/27 08:04:00;;;;;;;67.53;23.87;;;;;;;-2.43;100.00;100097.44;5032166;28;20304;-61
2022/01/27 08:06:27;;;;;;;72.77;22.73;;;;;;;-2.42;100.00;100101.69;5033271;28;20234;-60
2022/01/27 08:08:54;;;;;;;73.83;22.97;;;;;;;-2.44;100.00;100098.31;5015031;28;20221;-60
2022/01/27 08:11:21;;;;;;;73.57;24.53;;;;;;;-2.39;100.00;100109.28;5033016;28;20190;-60
2022/01/27 08:13:48;;;;;;;66.10;22.40;;;;;;;-2.48;98.81;100106.91;5014331;28;20286;-60
2022/01/27 08:16:15;;;;;;;68.93;23.40;;;;;;;-2.55;99.53;100114.72;5032847;28;20189;-60
2022/01/27 08:18:42;;;;;;;73.97;22.93;;;;;;;-2.44;100.00;100108.53;5032323;28;20210;-61
2022/01/27 08:21:09;;;;;;;63.87;22.93;;;;;;;-2.46;99.91;100113.66;5031998;28;20686;-60
2022/01/27 08:23:37;;;;;;;67.63;23.00;;;;;;;-2.45;99.52;100092.34;5031726;28;20710;-60
2022/01/27 08:26:07;;;;;;;76.73;25.63;;;;;;;-2.36;99.88;100070.88;5029560;28;20198;-60
2022/01/27 08:28:39;;;;;;;69.43;24.33;;;;;;;-2.35;99.90;100069.13;5029270;28;20289;-60
2022/01/27 08:31:06;;;;;;;73.10;25.13;;;;;;;-2.32;99.49;100057.13;5032523;28;20201;-60
2022/01/27 08:33:38;;;;;;;63.63;23.33;;;;;;;-2.23;99.75;100056.06;5031993;28;20193;-60
2022/01/27 08:36:05;;;;;;;81.50;26.27;;;;;;;-2.19;99.78;100050.00;5032992;28;20198;-59
2022/01/27 08:38:32;;;;;;;75.63;26.30;;;;;;;-2.26;98.83;100048.47;5032804;28;20713;-60
2022/01/27 08:40:59;;;;;;;82.03;26.17;;;;;;;-2.34;100.00;100040.13;5030131;28;20197;-60
2022/01/27 08:43:26;;;;;;;79.50;26.13;;;;;;;-2.32;100.00;100031.56;5030524;28;20241;-60
2022/01/27 08:45:53;;;;;;;71.00;24.70;;;;;;;-2.23;99.36;100030.50;5031212;28;20200;-60
2022/01/27 08:48:21;;;;;;;69.20;22.63;;;;;;;-2.20;98.85;100015.06;5031415;28;20708;-60
2022/01/27 08:50:58;;;;;;;59.53;20.03;;;;;;;-2.09;99.10;100007.13;5029300;28;20186;-60
2022/01/27 08:53:25;;;;;;;59.40;20.30;;;;;;;-2.03;97.93;99996.75;5031957;28;20181;-60
2022/01/27 08:55:52;;;;;;;51.50;18.90;;;;;;;-1.83;97.28;99987.75;5031207;28;20189;-59
2022/01/27 08:58:20;;;;;;;45.23;17.07;;;;;;;-1.72;96.57;99978.09;5031912;28;20205;-60
2022/01/27 09:00:47;;;;;;;45.57;17.57;;;;;;;-1.49;96.77;99974.91;5032075;28;20245;-60
2022/01/27 09:03:14;;;;;;;47.17;18.83;;;;;;;-1.25;95.84;99976.88;5031689;28;20202;-60
2022/01/27 09:05:41;;;;;;;40.20;14.63;;;;;;;-1.11;95.90;99977.34;5031842;28;20190;-60
2022/01/27 09:08:09;;;;;;;25.13;12.33;;;;;;;-0.90;96.14;99964.78;5032147;28;20205;-59
2022/01/27 09:10:36;;;;;;;24.23;11.43;;;;;;;-0.79;96.11;99954.22;5031070;28;20223;-59
2022/01/27 09:13:04;;;;;;;26.57;11.87;;;;;;;-0.60;96.15;99960.47;5014453;28;20240;-62
2022/01/27 09:15:32;;;;;;;22.03;10.57;;;;;;;-0.43;95.92;99961.66;5031422;28;20179;-62
2022/01/27 09:17:59;;;;;;;23.13;10.00;;;;;;;-0.28;95.97;99964.63;5031621;28;20209;-61
2022/01/27 09:20:27;;;;;;;20.57;9.47;;;;;;;-0.12;95.85;99952.16;5032072;28;20695;-61
2022/01/27 09:22:56;;;;;;;16.73;8.73;;;;;;;0.01;95.08;99957.72;5031902;28;20246;-61
2022/01/27 09:25:30;;;;;;;19.00;8.00;;;;;;;0.12;94.19;99951.31;5030316;28;20204;-61
2022/01/27 09:27:58;;;;;;;20.07;8.87;;;;;;;0.25;93.87;99946.63;5029681;28;20693;-62
2022/01/27 09:30:26;;;;;;;17.47;8.17;;;;;;;0.35;94.11;99941.19;5029530;28;20190;-61
2022/01/27 09:32:55;;;;;;;14.37;7.30;;;;;;;0.48;93.64;99944.16;5013090;28;20639;-61
2022/01/27 09:35:22;;;;;;;17.07;8.33;;;;;;;0.54;93.33;99942.19;5028935;28;20190;-60
2022/01/27 09:37:50;;;;;;;15.20;6.50;;;;;;;0.58;93.88;99941.19;5030828;28;20210;-60
2022/01/27 09:40:17;;;;;;;19.00;7.63;;;;;;;0.67;93.53;99941.75;5030975;28;20191;-60
2022/01/27 09:42:50;;;;;;;17.40;7.47;;;;;;;0.75;93.76;99951.78;5030899;28;20186;-60
2022/01/27 09:45:18;;;;;;;12.83;7.13;;;;;;;0.86;93.43;99957.38;5030348;28;20197;-60
2022/01/27 09:47:53;;;;;;;14.97;7.90;;;;;;;0.87;93.77;99952.16;5030842;28;20297;-60
2022/01/27 09:50:27;;;;;;;15.67;6.97;;;;;;;0.94;93.60;99965.63;5026605;28;20201;-61
2022/01/27 09:52:53;;;;;;;14.83;7.80;;;;;;;0.98;92.68;99971.50;5028291;28;20201;-62
2022/01/27 09:55:20;;;;;;;14.60;6.67;;;;;;;1.00;93.27;99965.41;5029610;28;20201;-61
2022/01/27 09:57:49;;;;;;;20.63;9.20;;;;;;;1.05;93.39;99972.13;5030683;28;20206;-60
2022/01/27 10:00:16;;;;;;;45.27;24.20;;;;;;;1.12;93.18;99978.69;5030572;28;20190;-61
2022/01/27 10:03:08;;;;;;;25.10;12.07;;;;;;;1.25;92.75;99979.09;5030743;28;20201;-61
2022/01/27 10:05:36;;;;;;;19.63;9.80;;;;;;;1.33;90.90;99974.50;5029852;28;20272;-61
2022/01/27 10:08:08;;;;;;;42.73;21.17;;;;;;;1.23;91.47;99963.69;5030662;28;20590;-61
2022/01/27 10:10:38;;;;;;;59.87;27.83;;;;;;;1.28;92.32;99961.78;5030408;28;20192;-61
2022/01/27 10:13:08;;;;;;;29.80;14.17;;;;;;;1.31;92.07;99956.53;5030728;28;20270;-60
2022/01/27 10:15:40;;;;;;;17.07;7.53;;;;;;;2.41;99.64;99961.56;5030496;28;20184;-55
2022/01/27 10:18:10;;;;;;;23.80;10.77;;;;;;;3.41;87.34;99958.00;5031036;28;20203;-55
2022/01/27 10:20:39;;;;;;;38.20;17.17;;;;;;;2.81;84.48;99966.72;5013456;28;20358;-59
2022/01/27 10:23:17;;;;;;;35.07;17.90;;;;;;;2.66;85.06;99965.66;5030469;28;20180;-60
2022/01/27 10:25:51;;;;;;;19.30;8.83;;;;;;;2.49;86.64;99954.34;5030421;28;20811;-59
2022/01/27 10:28:40;;;;;;;17.90;9.40;;;;;;;2.16;86.59;99946.31;5030856;28;20265;-58
2022/01/27 10:31:09;;;;;;;19.03;9.97;;;;;;;2.02;87.79;99949.47;5031044;28;20188;-58
2022/01/27 10:33:45;;;;;;;19.63;10.00;;;;;;;1.97;88.44;99961.72;5012606;28;20632;-58
2022/01/27 10:36:17;;;;;;;16.17;8.13;;;;;;;1.97;88.41;99953.97;5029695;28;20196;-58
2022/01/27 10:38:43;;;;;;;22.87;10.73;;;;;;;2.01;89.12;99963.25;5030839;28;20211;-58
2022/01/27 10:41:10;;;;;;;16.97;7.67;;;;;;;1.99;89.21;99958.16;5013050;28;20257;-58
2022/01/27 10:43:40;;;;;;;18.23;8.73;;;;;;;1.99;89.17;99957.34;5030321;28;20218;-58
2022/01/27 10:46:10;;;;;;;24.03;12.13;;;;;;;1.99;89.36;99965.06;5030461;28;20264;-58
2022/01/27 10:48:42;;;;;;;18.60;8.50;;;;;;;1.99;89.34;99965.88;5030194;28;20223;-58
2022/01/27 10:51:17;;;;;;;16.47;8.53;;;;;;;2.05;89.78;99975.13;5030679;28;20187;-58
2022/01/27 10:53:56;;;;;;;21.83;8.60;;;;;;;2.18;88.72;99970.28;5030037;28;20219;-58
2022/01/27 10:56:25;;;;;;;20.13;11.47;;;;;;;2.08;88.93;99989.59;5030311;28;20283;-59
2022/01/27 10:58:55;;;;;;;42.93;21.57;;;;;;;2.09;85.51;99981.81;5030919;28;20235;-58
2022/01/27 11:01:27;;;;;;;20.43;10.17;;;;;;;1.92;87.78;99972.19;5028536;28;20195;-59
2022/01/27 11:03:56;;;;;;;19.97;10.13;;;;;;;2.02;87.73;99957.22;5026226;28;20302;-59
2022/01/27 11:06:25;;;;;;;24.93;13.70;;;;;;;2.05;88.01;99951.94;5022266;28;20659;-59
2022/01/27 11:08:55;;;;;;;19.67;8.93;;;;;;;2.04;88.46;99960.56;5026785;28;20266;-60
2022/01/27 11:11:23;;;;;;;21.60;9.07;;;;;;;2.09;88.57;99950.06;5029196;28;20616;-59
2022/01/27 11:13:53;;;;;;;16.20;8.20;;;;;;;2.02;88.00;99949.47;5026637;28;20184;-59
2022/01/27 11:16:28;;;;;;;18.70;9.67;;;;;;;2.03;88.49;99953.72;5011419;28;20225;-60
2022/01/27 11:19:01;;;;;;;21.23;9.70;;;;;;;2.01;88.45;99950.38;5024613;28;20223;-59
2022/01/27 11:21:37;;;;;;;18.73;9.20;;;;;;;2.11;88.21;99948.25;5026745;28;20211;-59
2022/01/27 11:24:14;;;;;;;15.27;7.73;;;;;;;2.12;88.63;99950.75;5029620;28;20294;-60
2022/01/27 11:26:43;;;;;;;17.80;8.60;;;;;;;2.21;88.17;99955.50;5011258;28;20195;-60
2022/01/27 11:29:13;;;;;;;17.80;8.30;;;;;;;2.28;87.92;99944.94;5028767;28;20207;-60
2022/01/27 11:31:58;;;;;;;17.00;7.93;;;;;;;2.42;87.96;99947.78;5028948;28;20267;-60
2022/01/27 11:34:44;;;;;;;27.10;14.45;;;;;;;2.40;86.92;99952.16;5027165;28;20825;-59